Time;durP1;ratioP1;P1;durP2;ratioP2;P2;SDS_P1;SDS_P2;PMS_P1;PMS_P2;Temp;Humidity;BMP_temperature;BMP_pressure;BME280_temperature;BME280_humidity;BME280_pressure;Samples;Min_cycle;Max_cycle;Signal;HPM_P1;HPM_P2
2022/03/18 00:02:24;;;;;;;30.73;15.15;;;;;;;1.43;92.54;103705.59;5242474;28;20028;-67
2022/03/18 00:04:55;;;;;;;25.20;14.15;;;;;;;1.41;92.47;103719.63;5244978;28;20113;-67
2022/03/18 00:07:26;;;;;;;21.48;12.82;;;;;;;1.38;92.25;103712.56;5240230;28;20869;-68
2022/03/18 00:09:58;;;;;;;23.02;11.85;;;;;;;1.22;92.30;103715.94;5243650;28;20036;-67
2022/03/18 00:12:29;;;;;;;17.40;11.05;;;;;;;1.22;92.70;103726.47;5240700;28;20020;-67
2022/03/18 00:15:00;;;;;;;24.05;12.10;;;;;;;1.24;93.18;103720.34;5242139;28;20080;-67
2022/03/18 00:17:31;;;;;;;23.70;14.27;;;;;;;1.17;93.82;103723.81;5241540;28;20462;-68
2022/03/18 00:20:04;;;;;;;31.10;16.77;;;;;;;1.15;93.68;103730.75;5239833;28;20037;-67
2022/03/18 00:22:36;;;;;;;28.33;15.35;;;;;;;1.24;94.56;103729.97;5234015;28;20632;-67
2022/03/18 00:25:09;;;;;;;25.08;14.93;;;;;;;1.17;94.43;103732.56;5234469;28;20540;-67
2022/03/18 00:27:42;;;;;;;23.98;12.85;;;;;;;1.15;94.45;103736.03;5235033;28;20032;-67
2022/03/18 00:30:16;;;;;;;20.80;11.80;;;;;;;1.10;94.55;103729.84;5237518;28;20029;-67
2022/03/18 00:32:51;;;;;;;22.05;11.52;;;;;;;0.97;94.33;103721.84;5255119;28;20028;-67
2022/03/18 00:35:23;;;;;;;19.25;11.00;;;;;;;1.00;95.47;103721.00;5250473;28;20039;-67
2022/03/18 00:37:55;;;;;;;21.17;12.48;;;;;;;0.99;95.30;103729.75;5236552;28;20527;-67
2022/03/18 00:40:26;;;;;;;20.10;11.38;;;;;;;0.96;94.69;103727.97;5233524;28;20048;-67
2022/03/18 00:42:57;;;;;;;18.67;11.52;;;;;;;0.81;94.56;103730.44;5233837;28;20151;-67
2022/03/18 00:45:29;;;;;;;18.42;11.52;;;;;;;0.79;94.85;103726.91;5234884;28;20082;-67
2022/03/18 00:53:40;;;;;;;16.15;9.73;;;;;;;0.85;95.33;103741.88;5237345;28;20041;-67
2022/03/18 00:56:12;;;;;;;19.77;10.13;;;;;;;0.78;95.72;103748.78;5233523;28;20064;-67
2022/03/18 00:58:43;;;;;;;17.80;10.02;;;;;;;0.71;96.30;103755.75;5236947;28;20037;-67
2022/03/18 01:01:14;;;;;;;14.70;9.25;;;;;;;0.74;96.34;103744.38;5235758;28;20517;-67
2022/03/18 01:03:45;;;;;;;20.60;9.80;;;;;;;0.75;96.44;103747.03;5230184;28;20199;-67
2022/03/18 01:06:17;;;;;;;15.35;9.38;;;;;;;0.71;96.13;103758.38;5233101;28;20029;-67
2022/03/18 01:08:48;;;;;;;17.45;9.20;;;;;;;0.56;95.88;103756.44;5234046;28;20036;-67
2022/03/18 01:11:19;;;;;;;16.52;9.93;;;;;;;0.55;96.57;103762.53;5236310;28;20040;-67
2022/03/18 01:13:51;;;;;;;17.08;10.40;;;;;;;0.51;97.05;103760.72;5235535;28;20294;-67
2022/03/18 01:16:22;;;;;;;18.02;9.20;;;;;;;0.56;97.22;103774.81;5236466;28;20029;-67
2022/03/18 01:18:53;;;;;;;15.50;8.93;;;;;;;0.48;97.18;103763.34;5237828;28;20021;-67
2022/03/18 01:21:25;;;;;;;15.50;8.35;;;;;;;0.52;96.35;103759.00;5236369;28;20391;-67
2022/03/18 01:23:57;;;;;;;13.25;8.38;;;;;;;0.49;97.12;103765.09;5236488;28;20577;-67
2022/03/18 01:26:29;;;;;;;17.08;9.05;;;;;;;0.45;96.78;103762.41;5233227;28;20035;-67
2022/03/18 01:29:00;;;;;;;16.55;8.18;;;;;;;0.48;96.27;103763.34;5234410;28;20406;-67
2022/03/18 01:31:32;;;;;;;17.48;8.98;;;;;;;0.42;96.92;103763.22;5232677;28;20029;-67
2022/03/18 01:34:03;;;;;;;14.35;8.20;;;;;;;0.38;95.98;103754.47;5244338;28;20920;-67
2022/03/18 01:36:34;;;;;;;11.85;7.68;;;;;;;0.34;96.32;103762.25;5234115;28;21046;-68
2022/03/18 01:39:06;;;;;;;13.80;8.60;;;;;;;0.32;96.01;103754.34;5230899;28;20726;-67
2022/03/18 01:41:37;;;;;;;15.93;8.07;;;;;;;0.35;95.83;103756.16;5233409;28;20044;-67
2022/03/18 01:44:11;;;;;;;12.88;7.60;;;;;;;0.26;96.01;103766.53;5252037;28;20047;-67
2022/03/18 01:46:42;;;;;;;14.73;8.17;;;;;;;0.24;96.61;103763.88;5248020;28;20059;-67
2022/03/18 01:49:14;;;;;;;17.80;8.02;;;;;;;0.22;96.76;103764.72;5244219;28;21842;-67
2022/03/18 01:51:45;;;;;;;17.55;7.97;;;;;;;0.18;96.84;103769.06;5245705;28;20064;-67
2022/03/18 01:57:08;;;;;;;13.98;8.10;;;;;;;0.14;96.24;103770.75;5242591;28;20053;-67
2022/03/18 01:59:39;;;;;;;11.88;7.45;;;;;;;0.18;97.70;103772.56;5260776;28;20047;-67
2022/03/18 02:02:11;;;;;;;15.20;8.10;;;;;;;0.13;98.06;103763.72;5253481;28;20033;-67
2022/03/18 02:04:43;;;;;;;18.95;8.32;;;;;;;0.02;97.53;103762.72;5247663;28;20067;-67
2022/03/18 02:07:16;;;;;;;16.02;8.27;;;;;;;0.06;97.82;103767.13;5237878;28;20017;-67
2022/03/18 02:09:47;;;;;;;16.08;8.60;;;;;;;0.07;97.85;103768.88;5237182;28;20047;-67
2022/03/18 02:12:18;;;;;;;17.15;8.65;;;;;;;-0.05;97.59;103773.97;5239810;28;20025;-67
2022/03/18 02:14:50;;;;;;;18.48;8.68;;;;;;;-0.05;97.17;103771.34;5236483;28;20671;-67
2022/03/18 02:17:21;;;;;;;14.13;8.82;;;;;;;-0.06;97.03;103780.97;5241853;28;20171;-67
2022/03/18 02:19:53;;;;;;;15.15;7.90;;;;;;;-0.08;97.30;103784.41;5242355;28;20037;-67
2022/03/18 02:22:25;;;;;;;13.65;8.13;;;;;;;-0.11;97.02;103787.88;5254233;28;20037;-67
2022/03/18 02:24:56;;;;;;;13.05;7.28;;;;;;;-0.18;97.31;103786.00;5244911;28;20024;-67
2022/03/18 02:27:27;;;;;;;12.50;7.97;;;;;;;-0.20;97.24;103790.34;5254618;28;20051;-67
2022/03/18 02:29:59;;;;;;;14.63;7.80;;;;;;;-0.26;97.69;103788.50;5247044;28;20037;-67
2022/03/18 02:32:31;;;;;;;16.95;8.23;;;;;;;-0.28;98.12;103784.09;5245919;28;20387;-67
2022/03/18 02:35:03;;;;;;;14.45;8.43;;;;;;;-0.30;98.64;103780.56;5238534;28;20033;-67
2022/03/18 02:37:34;;;;;;;15.88;8.32;;;;;;;-0.31;98.66;103787.53;5248286;28;20025;-67
2022/03/18 02:40:06;;;;;;;17.55;8.45;;;;;;;-0.37;98.11;103800.56;5250164;28;20170;-68
2022/03/18 02:42:37;;;;;;;18.85;7.90;;;;;;;-0.42;98.78;103799.63;5243539;28;20032;-67
2022/03/18 02:45:09;;;;;;;16.95;8.63;;;;;;;-0.34;98.55;103805.00;5243335;28;20113;-67
2022/03/18 02:47:40;;;;;;;15.45;8.43;;;;;;;-0.34;98.34;103800.63;5244107;28;20483;-67
2022/03/18 02:50:12;;;;;;;12.90;8.25;;;;;;;-0.33;99.57;103801.50;5247392;28;20066;-67
2022/03/18 02:52:44;;;;;;;16.30;9.35;;;;;;;-0.43;99.24;103796.09;5261240;28;20056;-67
2022/03/18 02:55:16;;;;;;;16.67;9.05;;;;;;;-0.47;99.06;103803.91;5243925;28;20064;-67
2022/03/18 02:57:47;;;;;;;19.25;9.13;;;;;;;-0.42;99.49;103794.38;5255401;28;20124;-67
2022/03/18 03:00:18;;;;;;;17.20;9.10;;;;;;;-0.33;99.75;103798.88;5244375;28;20420;-67
2022/03/18 03:02:50;;;;;;;14.70;8.45;;;;;;;-0.39;99.50;103804.91;5246599;28;20037;-67
2022/03/18 03:08:12;;;;;;;16.90;8.57;;;;;;;-0.50;99.34;103814.31;5252693;28;20048;-68
2022/03/18 03:10:44;;;;;;;16.50;8.52;;;;;;;-0.48;98.71;103818.75;5252949;28;20394;-67
2022/03/18 03:13:15;;;;;;;17.17;8.75;;;;;;;-0.52;99.04;103823.91;5240754;28;20029;-67
2022/03/18 03:15:46;;;;;;;16.58;8.40;;;;;;;-0.50;98.79;103824.81;5251238;28;20048;-67
2022/03/18 03:18:17;;;;;;;18.05;9.13;;;;;;;-0.55;99.94;103821.25;5247774;28;20032;-67
2022/03/18 03:20:49;;;;;;;15.30;7.75;;;;;;;-0.57;99.62;103821.22;5245791;28;20083;-67
2022/03/18 03:23:21;;;;;;;13.73;7.50;;;;;;;-0.62;99.15;103831.59;5241836;28;20038;-66
2022/03/18 03:25:53;;;;;;;16.50;8.52;;;;;;;-0.63;99.66;103824.59;5240835;28;20021;-67
2022/03/18 03:28:25;;;;;;;14.85;7.60;;;;;;;-0.65;99.69;103836.81;5248462;28;20084;-67
2022/03/18 03:30:56;;;;;;;15.23;8.20;;;;;;;-0.72;99.34;103840.16;5248227;28;20045;-67
2022/03/18 03:33:27;;;;;;;15.38;8.65;;;;;;;-0.64;100.00;103841.16;5243345;28;20060;-66
2022/03/18 03:35:59;;;;;;;13.20;7.53;;;;;;;-0.71;99.99;103836.69;5237272;28;20437;-67
2022/03/18 03:38:31;;;;;;;16.92;8.20;;;;;;;-0.69;100.00;103832.34;5238138;28;20036;-67
2022/03/18 03:41:02;;;;;;;18.98;8.50;;;;;;;-0.76;100.00;103834.84;5232867;28;20033;-67
2022/03/18 03:43:33;;;;;;;18.15;7.85;;;;;;;-0.79;100.00;103843.50;5256793;28;20406;-67
2022/03/18 03:46:04;;;;;;;16.73;7.55;;;;;;;-0.75;100.00;103844.44;5230791;28;21209;-67
2022/03/18 03:48:36;;;;;;;14.13;8.70;;;;;;;-0.81;100.00;103845.22;5239464;28;20029;-67
2022/03/18 03:51:07;;;;;;;18.50;8.23;;;;;;;-0.89;99.84;103852.94;5244041;28;20241;-67
2022/03/18 03:53:38;;;;;;;11.75;7.53;;;;;;;-0.83;99.88;103854.78;5236141;28;20043;-67
2022/03/18 03:56:09;;;;;;;15.45;7.68;;;;;;;-0.89;100.00;103857.28;5244951;28;20033;-67
2022/03/18 03:58:41;;;;;;;14.07;8.32;;;;;;;-0.83;100.00;103854.78;5236640;28;20439;-67
2022/03/18 04:01:12;;;;;;;15.35;7.38;;;;;;;-0.89;100.00;103857.28;5246400;28;20471;-67
2022/03/18 04:03:45;;;;;;;15.23;8.35;;;;;;;-0.86;100.00;103852.13;5233969;28;20032;-67
2022/03/18 04:06:16;;;;;;;14.65;7.97;;;;;;;-0.85;99.96;103869.59;5236658;28;20025;-67
2022/03/18 04:08:47;;;;;;;18.00;8.60;;;;;;;-0.90;100.00;103877.38;5240482;28;20032;-66
2022/03/18 04:11:18;;;;;;;16.63;7.95;;;;;;;-0.88;100.00;103872.16;5234987;28;20044;-67
2022/03/18 04:13:50;;;;;;;19.00;8.07;;;;;;;-0.89;100.00;103876.50;5237748;28;20025;-67
2022/03/18 04:16:21;;;;;;;13.85;8.07;;;;;;;-0.89;100.00;103870.41;5240788;28;20115;-66
2022/03/18 04:18:52;;;;;;;14.23;7.55;;;;;;;-1.01;100.00;103885.00;5239046;28;20104;-66
2022/03/18 04:21:24;;;;;;;12.98;7.10;;;;;;;-0.97;100.00;103883.34;5248614;28;20036;-66
2022/03/18 04:23:55;;;;;;;14.85;7.13;;;;;;;-0.99;100.00;103888.56;5232104;28;20033;-66
2022/03/18 04:26:26;;;;;;;14.85;7.32;;;;;;;-0.99;100.00;103887.69;5237176;28;20053;-67
2022/03/18 04:28:58;;;;;;;16.27;7.32;;;;;;;-1.07;100.00;103899.75;5241755;28;20110;-66
2022/03/18 04:31:29;;;;;;;14.88;7.25;;;;;;;-0.99;100.00;103899.03;5239579;28;20034;-67
2022/03/18 04:34:00;;;;;;;13.02;7.57;;;;;;;-1.04;100.00;103905.91;5236520;28;20057;-67
2022/03/18 04:36:32;;;;;;;11.55;6.78;;;;;;;-1.09;100.00;103894.47;5243211;28;20029;-67
2022/03/18 04:39:03;;;;;;;13.15;6.90;;;;;;;-1.13;100.00;103907.44;5235126;28;20047;-66
2022/03/18 04:41:34;;;;;;;13.65;7.47;;;;;;;-1.15;100.00;103917.00;5241135;28;20513;-67
2022/03/18 04:44:07;;;;;;;13.88;7.05;;;;;;;-1.12;100.00;103915.34;5234732;28;20487;-67
2022/03/18 04:46:38;;;;;;;14.43;6.88;;;;;;;-1.10;100.00;103904.91;5237529;28;20550;-66
2022/03/18 04:49:09;;;;;;;20.67;7.18;;;;;;;-1.11;100.00;103911.88;5235694;28;20040;-67
2022/03/18 04:51:41;;;;;;;17.65;7.10;;;;;;;-1.15;100.00;103907.44;5237784;28;20105;-67
2022/03/18 04:54:12;;;;;;;13.38;7.05;;;;;;;-1.17;100.00;103903.00;5235173;28;20341;-66
2022/03/18 04:59:33;;;;;;;17.00;7.70;;;;;;;-1.23;100.00;103914.22;5236136;28;20544;-66
2022/03/18 05:02:04;;;;;;;17.02;8.00;;;;;;;-1.26;100.00;103920.28;5235746;28;20431;-68
2022/03/18 05:04:37;;;;;;;14.50;7.90;;;;;;;-1.30;100.00;103926.31;5232435;28;20040;-66
2022/03/18 05:07:11;;;;;;;14.23;7.30;;;;;;;-1.20;100.00;103924.78;5235564;28;20097;-66
2022/03/18 05:09:44;;;;;;;13.35;7.35;;;;;;;-1.22;100.00;103927.34;5232780;28;20123;-67
2022/03/18 05:12:17;;;;;;;16.92;7.97;;;;;;;-1.26;100.00;103935.13;5233666;28;20037;-67
2022/03/18 05:14:49;;;;;;;12.52;7.60;;;;;;;-1.27;100.00;103941.19;5247857;28;20045;-67
2022/03/18 05:17:20;;;;;;;14.05;8.20;;;;;;;-1.27;100.00;103939.44;5233414;28;20040;-66
2022/03/18 05:19:51;;;;;;;13.55;7.38;;;;;;;-1.30;100.00;103947.25;5247333;28;20495;-67
2022/03/18 05:22:23;;;;;;;15.07;7.85;;;;;;;-1.34;100.00;103942.81;5240090;28;20033;-67
2022/03/18 05:24:54;;;;;;;19.58;9.30;;;;;;;-1.35;100.00;103945.38;5241879;28;20051;-67
2022/03/18 05:27:25;;;;;;;19.63;8.48;;;;;;;-1.37;100.00;103947.97;5250247;28;20043;-66
2022/03/18 05:29:57;;;;;;;19.27;8.65;;;;;;;-1.39;100.00;103954.91;5239882;28;20525;-67
2022/03/18 05:32:28;;;;;;;15.23;7.72;;;;;;;-1.29;100.00;103954.25;5238699;28;20053;-67
2022/03/18 05:34:59;;;;;;;14.27;7.60;;;;;;;-1.45;100.00;103953.00;5237558;28;20044;-66
2022/03/18 05:37:30;;;;;;;14.07;7.70;;;;;;;-1.47;100.00;103959.94;5239429;28;20064;-68
2022/03/18 05:40:03;;;;;;;14.57;7.45;;;;;;;-1.46;100.00;103958.22;5237709;28;20739;-67
2022/03/18 05:42:34;;;;;;;17.38;8.38;;;;;;;-1.47;100.00;103948.59;5238405;28;20044;-67
2022/03/18 05:45:06;;;;;;;17.70;8.48;;;;;;;-1.46;100.00;103958.22;5236269;28;20040;-67
2022/03/18 05:47:38;;;;;;;14.85;8.07;;;;;;;-1.48;100.00;103954.66;5244596;28;20060;-67
2022/03/18 05:50:09;;;;;;;15.88;8.48;;;;;;;-1.49;100.00;103958.16;5247719;28;20028;-67
2022/03/18 05:52:40;;;;;;;15.57;8.35;;;;;;;-1.54;100.00;103957.16;5243193;28;20494;-67
2022/03/18 05:55:12;;;;;;;18.10;8.60;;;;;;;-1.54;100.00;103955.41;5244981;28;20056;-68
2022/03/18 05:57:43;;;;;;;17.13;8.60;;;;;;;-1.51;100.00;103946.75;5247336;28;20048;-66
2022/03/18 06:00:15;;;;;;;15.82;9.45;;;;;;;-1.47;100.00;103959.94;5246501;28;20522;-67
2022/03/18 06:02:46;;;;;;;18.60;9.80;;;;;;;-1.39;100.00;103968.88;5243290;28;20083;-67
2022/03/18 06:05:17;;;;;;;15.85;9.63;;;;;;;-1.42;100.00;103975.75;5244284;28;20029;-67
2022/03/18 06:07:49;;;;;;;21.92;10.43;;;;;;;-1.33;100.00;103985.59;5241208;28;20369;-67
2022/03/18 06:13:10;;;;;;;18.13;10.95;;;;;;;-1.34;100.00;103978.56;5240858;28;20059;-67
2022/03/18 06:15:41;;;;;;;22.73;10.82;;;;;;;-1.33;100.00;103983.84;5242274;28;20102;-67
2022/03/18 06:18:12;;;;;;;16.00;10.20;;;;;;;-1.24;100.00;103985.81;5246917;28;20056;-67
2022/03/18 06:20:49;;;;;;;20.48;10.32;;;;;;;-1.20;100.00;103992.88;5260508;28;20024;-68
2022/03/18 06:23:21;;;;;;;19.80;10.52;;;;;;;-1.21;100.00;103997.25;5259755;28;20060;-67
2022/03/18 06:25:52;;;;;;;17.83;10.63;;;;;;;-1.12;100.00;104003.56;5245388;28;20103;-68
2022/03/18 06:28:23;;;;;;;21.60;11.25;;;;;;;-1.08;100.00;104002.75;5249631;28;20026;-67
2022/03/18 06:30:55;;;;;;;19.33;10.88;;;;;;;-1.06;100.00;104011.53;5245950;28;20040;-67
2022/03/18 06:33:30;;;;;;;19.17;11.52;;;;;;;-1.00;100.00;104007.34;5242816;28;20036;-67
2022/03/18 06:36:01;;;;;;;21.23;11.68;;;;;;;-0.96;100.00;104008.28;5237610;28;20128;-68
2022/03/18 06:38:33;;;;;;;19.25;11.55;;;;;;;-0.94;100.00;104005.69;5239212;28;20040;-66
2022/03/18 06:41:04;;;;;;;19.75;10.98;;;;;;;-0.87;100.00;104008.50;5238177;28;20028;-67
2022/03/18 06:43:35;;;;;;;22.52;12.05;;;;;;;-0.83;100.00;104017.31;5241968;28;20033;-66
2022/03/18 06:46:07;;;;;;;20.65;12.50;;;;;;;-0.81;100.00;104016.47;5250603;28;20032;-66
2022/03/18 06:48:38;;;;;;;30.27;13.57;;;;;;;-0.69;100.00;104017.59;5247197;28;20116;-66
2022/03/18 06:51:10;;;;;;;24.90;12.52;;;;;;;-0.67;100.00;104021.16;5249744;28;20160;-66
2022/03/18 06:53:42;;;;;;;20.45;13.00;;;;;;;-0.62;100.00;104030.88;5248351;28;20472;-66
2022/03/18 06:56:13;;;;;;;26.02;14.82;;;;;;;-0.54;100.00;104030.16;5246935;28;20033;-67
2022/03/18 06:58:45;;;;;;;23.88;15.07;;;;;;;-0.50;100.00;104037.25;5244111;28;20028;-66
2022/03/18 07:01:16;;;;;;;24.17;14.88;;;;;;;-0.46;100.00;104031.22;5246719;28;20033;-66
2022/03/18 07:03:48;;;;;;;25.30;17.17;;;;;;;-0.37;100.00;104034.03;5243592;28;20498;-67
2022/03/18 07:06:19;;;;;;;26.88;16.55;;;;;;;-0.31;100.00;104036.78;5254150;28;20475;-66
2022/03/18 07:08:51;;;;;;;30.52;17.05;;;;;;;-0.25;100.00;104031.69;5249317;28;20036;-66
2022/03/18 07:11:22;;;;;;;29.85;17.65;;;;;;;-0.13;100.00;104040.66;5244914;28;20116;-66
2022/03/18 07:13:53;;;;;;;34.28;19.00;;;;;;;-0.01;100.00;104036.50;5210131;28;1010781;-66
2022/03/18 07:19:15;;;;;;;27.13;16.92;;;;;;;0.14;100.00;104042.91;5247164;28;20041;-66
2022/03/18 07:21:46;;;;;;;31.95;17.08;;;;;;;0.24;100.00;104041.34;5245802;28;20037;-67
2022/03/18 07:24:18;;;;;;;26.83;15.20;;;;;;;0.34;100.00;104043.28;5245494;28;20063;-66
2022/03/18 07:26:49;;;;;;;29.40;15.95;;;;;;;0.45;100.00;104051.34;5230164;28;20046;-67
2022/03/18 07:29:20;;;;;;;29.02;15.48;;;;;;;0.59;100.00;104044.56;5234733;28;20033;-66
2022/03/18 07:31:54;;;;;;;24.65;15.52;;;;;;;0.68;100.00;104057.00;5235915;28;21345;-66
2022/03/18 07:34:26;;;;;;;33.25;16.45;;;;;;;0.84;100.00;104056.38;5237760;28;20028;-67
2022/03/18 07:36:57;;;;;;;30.48;14.35;;;;;;;1.07;100.00;104050.59;5251184;28;20028;-66
2022/03/18 07:39:28;;;;;;;34.15;15.63;;;;;;;1.22;100.00;104055.22;5249599;28;20067;-66
2022/03/18 07:41:59;;;;;;;25.42;14.05;;;;;;;1.31;100.00;104064.13;5248846;28;20525;-66
2022/03/18 07:44:31;;;;;;;24.17;13.52;;;;;;;1.50;100.00;104061.75;5247958;28;20490;-66
2022/03/18 07:47:03;;;;;;;29.20;12.77;;;;;;;1.64;100.00;104069.81;5238852;28;20494;-66
2022/03/18 07:49:34;;;;;;;26.80;12.82;;;;;;;1.84;100.00;104078.88;5249621;28;20025;-66
2022/03/18 07:52:06;;;;;;;22.92;11.77;;;;;;;2.04;100.00;104089.63;5247315;28;20432;-66
2022/03/18 07:54:39;;;;;;;26.50;12.95;;;;;;;2.20;100.00;104085.41;5248502;28;20460;-66
2022/03/18 07:57:10;;;;;;;23.02;11.43;;;;;;;2.33;100.00;104092.56;5245061;28;20036;-66
2022/03/18 07:59:41;;;;;;;21.58;11.23;;;;;;;2.43;100.00;104085.63;5252242;28;20475;-66
2022/03/18 08:02:12;;;;;;;21.25;11.07;;;;;;;2.62;100.00;104094.59;5249707;28;20079;-67
2022/03/18 08:04:47;;;;;;;24.90;11.82;;;;;;;2.71;100.00;104099.09;5249710;28;20068;-67
2022/03/18 08:07:18;;;;;;;19.65;10.82;;;;;;;2.74;100.00;104094.75;5253252;28;20475;-67
2022/03/18 08:09:49;;;;;;;24.88;12.18;;;;;;;2.85;100.00;104102.72;5252642;28;20032;-67
2022/03/18 08:12:20;;;;;;;23.08;11.98;;;;;;;3.05;100.00;104104.63;5249067;28;20033;-67
2022/03/18 08:14:52;;;;;;;26.15;12.43;;;;;;;3.15;100.00;104101.22;5246172;28;20147;-68
2022/03/18 08:17:23;;;;;;;20.02;11.75;;;;;;;3.34;100.00;104105.72;5246188;28;20045;-67
2022/03/18 08:19:56;;;;;;;22.77;11.48;;;;;;;3.41;100.00;104105.75;5248169;28;20289;-67
2022/03/18 08:22:27;;;;;;;22.67;11.27;;;;;;;3.52;100.00;104109.34;5251891;28;20453;-67
2022/03/18 08:24:59;;;;;;;20.35;9.80;;;;;;;3.70;100.00;104113.84;5251751;28;20078;-67
2022/03/18 08:27:30;;;;;;;22.63;9.13;;;;;;;3.81;99.56;104114.78;5253091;28;20495;-67
2022/03/18 08:30:04;;;;;;;15.43;8.00;;;;;;;3.95;98.75;104106.94;5246627;28;20040;-67
2022/03/18 08:32:35;;;;;;;16.20;8.23;;;;;;;4.06;97.57;104113.13;5249558;28;20115;-67
2022/03/18 08:35:07;;;;;;;21.58;8.38;;;;;;;4.19;96.95;104115.81;5251715;28;20098;-67
2022/03/18 08:37:57;;;;;;;18.70;8.23;;;;;;;4.38;95.65;104116.75;5252949;28;20031;-67
2022/03/18 08:40:33;;;;;;;13.68;7.45;;;;;;;4.53;94.16;104122.06;5250089;28;20032;-67
2022/03/18 08:43:07;;;;;;;22.10;7.95;;;;;;;4.74;93.42;104129.16;5250786;28;20033;-68
2022/03/18 08:45:38;;;;;;;17.02;7.65;;;;;;;4.89;92.63;104139.75;5251519;28;20021;-68
2022/03/18 08:48:09;;;;;;;16.02;7.28;;;;;;;4.98;91.88;104133.56;5250554;28;20573;-68
2022/03/18 08:50:41;;;;;;;17.33;6.80;;;;;;;5.14;91.23;104137.09;5250981;28;20024;-67
2022/03/18 08:53:12;;;;;;;15.30;6.72;;;;;;;5.21;89.64;104146.78;5251342;28;20622;-68
2022/03/18 08:55:43;;;;;;;14.32;6.25;;;;;;;5.33;88.21;104153.88;5248447;28;20438;-68
2022/03/18 08:58:14;;;;;;;14.18;5.78;;;;;;;5.52;85.81;104159.97;5247341;28;20037;-68
2022/03/18 09:00:45;;;;;;;12.40;5.97;;;;;;;5.72;85.06;104161.72;5283209;28;20964;-68
2022/03/18 09:03:17;;;;;;;13.95;5.50;;;;;;;5.84;84.58;104159.91;5249398;28;20100;-68
2022/03/18 09:05:49;;;;;;;12.50;6.05;;;;;;;6.05;85.31;104152.81;5246257;28;20451;-68
2022/03/18 09:08:20;;;;;;;14.05;5.93;;;;;;;6.24;82.50;104157.13;5249886;28;20029;-68
2022/03/18 09:10:51;;;;;;;13.07;5.20;;;;;;;6.37;82.32;104157.09;5251477;28;20112;-68
2022/03/18 09:13:22;;;;;;;13.18;5.55;;;;;;;6.50;80.34;104169.41;5252312;28;20029;-68
2022/03/18 09:15:54;;;;;;;10.98;4.78;;;;;;;6.64;77.65;104162.22;5245947;28;20049;-68
2022/03/18 09:18:25;;;;;;;11.95;4.95;;;;;;;6.86;77.19;104177.97;5250370;28;20171;-68
2022/03/18 09:20:57;;;;;;;9.82;4.43;;;;;;;6.96;77.56;104174.41;5251519;28;20040;-68
2022/03/18 09:23:28;;;;;;;11.18;4.75;;;;;;;6.97;75.28;104170.81;5245822;28;20052;-68
2022/03/18 09:25:59;;;;;;;14.52;5.78;;;;;;;7.03;76.40;104172.56;5245310;28;20025;-68
2022/03/18 09:28:31;;;;;;;10.77;4.68;;;;;;;7.09;75.71;104182.25;5245359;28;20037;-68
2022/03/18 09:31:02;;;;;;;11.18;5.00;;;;;;;7.15;76.13;104177.78;5251291;28;20487;-68
2022/03/18 09:33:35;;;;;;;8.85;4.78;;;;;;;7.22;74.84;104182.13;5244573;28;20066;-68
2022/03/18 09:36:06;;;;;;;12.52;4.78;;;;;;;7.36;74.23;104184.66;5247658;28;20479;-68
2022/03/18 09:38:37;;;;;;;14.18;5.10;;;;;;;7.54;74.30;104186.28;5248295;28;20040;-68
2022/03/18 09:41:09;;;;;;;10.65;4.95;;;;;;;7.59;73.18;104195.09;5248103;28;20566;-68
2022/03/18 09:43:41;;;;;;;9.95;4.40;;;;;;;7.63;73.30;104188.84;5249047;28;20024;-68
2022/03/18 09:46:16;;;;;;;10.13;4.50;;;;;;;7.64;72.37;104189.72;5238294;28;20503;-68
2022/03/18 09:48:48;;;;;;;9.18;3.95;;;;;;;7.82;71.50;104185.97;5242341;28;20110;-68
2022/03/18 09:51:19;;;;;;;7.28;3.90;;;;;;;7.95;71.44;104184.94;5248186;28;20037;-68
2022/03/18 09:53:50;;;;;;;10.35;4.03;;;;;;;7.95;70.49;104187.59;5248154;28;20044;-68
2022/03/18 09:56:22;;;;;;;14.15;3.88;;;;;;;8.16;69.05;104190.91;5249023;28;20558;-68
2022/03/18 09:58:53;;;;;;;9.10;3.30;;;;;;;8.23;65.21;104192.59;5246004;28;20135;-68
2022/03/18 10:01:24;;;;;;;9.85;3.05;;;;;;;8.22;66.19;104188.16;5245467;28;20152;-68
2022/03/18 10:04:05;;;;;;;7.32;2.83;;;;;;;8.34;65.03;104197.75;5248424;28;20513;-68
2022/03/18 10:06:38;;;;;;;9.30;3.15;;;;;;;8.54;63.90;104195.75;5244470;28;20395;-68
2022/03/18 10:09:16;;;;;;;11.40;3.53;;;;;;;8.64;64.68;104201.81;5248027;28;20475;-68
2022/03/18 10:11:50;;;;;;;7.57;3.00;;;;;;;8.99;60.90;104209.28;5252030;28;20025;-68
2022/03/18 10:14:24;;;;;;;9.88;2.85;;;;;;;8.94;61.17;104210.25;5249401;28;21827;-68
2022/03/18 10:17:01;;;;;;;6.38;2.72;;;;;;;9.02;61.99;104221.66;5245399;28;20037;-68
2022/03/18 10:19:45;;;;;;;9.02;2.72;;;;;;;9.09;61.38;104219.78;5251840;28;20033;-68
2022/03/18 10:22:17;;;;;;;6.78;2.95;;;;;;;9.27;60.22;104208.81;5251592;28;20044;-68
2022/03/18 10:24:48;;;;;;;8.85;2.90;;;;;;;9.27;61.29;104223.94;5253046;28;20032;-68
2022/03/18 10:27:21;;;;;;;6.28;2.83;;;;;;;9.34;61.41;104212.25;5251705;28;20060;-68
2022/03/18 10:29:54;;;;;;;8.02;3.50;;;;;;;9.46;60.28;104209.38;5249387;28;20037;-68
2022/03/18 10:32:27;;;;;;;5.82;3.00;;;;;;;9.58;60.57;104203.81;5250052;28;20112;-68
2022/03/18 10:37:50;;;;;;;8.02;2.50;;;;;;;9.62;60.02;104209.97;5250444;28;20033;-68
2022/03/18 10:40:33;;;;;;;7.63;2.70;;;;;;;9.64;60.25;104201.97;5247357;28;20531;-68
2022/03/18 10:43:06;;;;;;;8.25;2.58;;;;;;;9.74;58.87;104219.53;5250801;28;20063;-68
2022/03/18 10:45:37;;;;;;;5.43;2.50;;;;;;;9.72;58.84;104211.59;5249978;28;20108;-68
2022/03/18 10:48:17;;;;;;;6.03;2.50;;;;;;;9.96;57.93;104207.56;5249430;28;20039;-68
2022/03/18 10:51:00;;;;;;;9.70;2.80;;;;;;;9.96;58.74;104209.34;5254651;28;20363;-68
2022/03/18 10:53:33;;;;;;;9.95;2.65;;;;;;;9.98;56.58;104204.88;5251907;28;20033;-68
2022/03/18 10:56:04;;;;;;;7.68;2.30;;;;;;;9.97;57.17;104203.09;5251762;28;20044;-68
2022/03/18 10:58:38;;;;;;;6.93;2.33;;;;;;;10.21;55.79;104205.25;5250691;28;20036;-68
2022/03/18 11:01:11;;;;;;;8.23;2.43;;;;;;;10.25;56.27;104207.88;5249432;28;20387;-68
2022/03/18 11:03:45;;;;;;;12.77;2.58;;;;;;;10.23;56.77;104199.91;5252822;28;20789;-68
2022/03/18 11:06:17;;;;;;;7.07;2.70;;;;;;;10.33;56.69;104203.28;5250895;28;20144;-68
2022/03/18 11:08:48;;;;;;;5.32;2.53;;;;;;;10.36;56.34;104195.22;5247130;28;20390;-69
2022/03/18 11:11:22;;;;;;;5.90;2.30;;;;;;;10.58;54.82;104196.50;5252342;28;20451;-68
2022/03/18 11:14:00;;;;;;;8.90;2.80;;;;;;;10.61;56.02;104192.88;5252982;28;20033;-68
2022/03/18 11:16:38;;;;;;;9.35;2.58;;;;;;;10.67;55.67;104199.88;5248113;28;20232;-69
2022/03/18 11:19:10;;;;;;;7.18;3.03;;;;;;;10.63;54.91;104196.38;5248763;28;20025;-68
2022/03/18 11:21:43;;;;;;;7.20;2.80;;;;;;;10.69;55.63;104195.38;5246471;28;20051;-68
2022/03/18 11:24:20;;;;;;;8.75;2.88;;;;;;;10.74;55.42;104194.34;5253246;28;20021;-69
2022/03/18 11:26:53;;;;;;;8.48;2.53;;;;;;;10.80;55.31;104193.31;5252923;28;20549;-68
2022/03/18 11:29:26;;;;;;;8.27;2.40;;;;;;;10.78;54.88;104190.69;5250357;28;20029;-68
2022/03/18 11:32:09;;;;;;;7.75;2.58;;;;;;;10.76;58.30;104197.00;5251452;28;20040;-69
2022/03/18 11:34:58;;;;;;;6.88;2.58;;;;;;;10.96;53.56;104192.03;5251190;28;20475;-69
2022/03/18 11:37:30;;;;;;;5.97;2.63;;;;;;;11.19;53.97;104190.59;5250162;28;20025;-69
2022/03/18 11:40:19;;;;;;;9.25;3.17;;;;;;;11.31;54.58;104195.63;5253391;28;20033;-69
2022/03/18 11:42:51;;;;;;;10.30;3.55;;;;;;;11.37;52.98;104189.22;5246450;28;20487;-69
2022/03/18 11:45:37;;;;;;;9.38;3.05;;;;;;;11.42;53.46;104187.31;5250844;28;20036;-69
2022/03/18 11:48:34;;;;;;;8.43;3.15;;;;;;;11.44;55.07;104193.50;5254354;28;20449;-69
2022/03/18 11:51:26;;;;;;;9.00;3.28;;;;;;;11.56;55.43;104194.97;5249808;28;20036;-68
2022/03/18 11:54:00;;;;;;;8.43;3.13;;;;;;;11.54;52.95;104189.69;5248166;28;20028;-68
2022/03/18 11:56:53;;;;;;;7.90;3.35;;;;;;;11.63;51.62;104193.00;5248035;28;20040;-67
2022/03/18 11:59:24;;;;;;;6.55;2.95;;;;;;;11.69;52.02;104191.03;5252675;28;20037;-68
2022/03/18 12:01:59;;;;;;;6.78;3.28;;;;;;;11.73;53.22;104197.19;5249157;28;20041;-68
2022/03/18 12:04:33;;;;;;;8.32;3.65;;;;;;;11.83;52.50;104188.00;5246587;28;20055;-67